sensor_id;sensor_type;location;lat;lon;timestamp;pressure;altitude;pressure_sealevel;temperature;humidity
56568;BME280;42456;49.956;20.004;2023-06-14T00:02:25;98228.30;;;8.70;84.30
56568;BME280;42456;49.956;20.004;2023-06-14T00:04:52;98231.16;;;8.77;84.33
56568;BME280;42456;49.956;20.004;2023-06-14T00:07:22;98230.80;;;8.81;84.55
56568;BME280;42456;49.956;20.004;2023-06-14T00:10:00;98233.42;;;8.86;84.61
56568;BME280;42456;49.956;20.004;2023-06-14T00:12:27;98230.66;;;8.89;84.83
56568;BME280;42456;49.956;20.004;2023-06-14T00:14:53;98231.30;;;8.94;85.07
56568;BME280;42456;49.956;20.004;2023-06-14T00:17:20;98228.03;;;8.98;85.41
56568;BME280;42456;49.956;20.004;2023-06-14T00:19:48;98230.90;;;9.02;85.41
56568;BME280;42456;49.956;20.004;2023-06-14T00:22:16;98231.42;;;9.05;85.68
56568;BME280;42456;49.956;20.004;2023-06-14T00:24:42;98230.88;;;9.11;85.69
56568;BME280;42456;49.956;20.004;2023-06-14T00:27:09;98230.52;;;9.13;85.85
56568;BME280;42456;49.956;20.004;2023-06-14T00:29:37;98227.61;;;9.17;85.79
56568;BME280;42456;49.956;20.004;2023-06-14T00:32:04;98225.23;;;9.20;85.83
56568;BME280;42456;49.956;20.004;2023-06-14T00:34:31;98224.99;;;9.24;86.42
56568;BME280;42456;49.956;20.004;2023-06-14T00:36:59;98227.33;;;9.26;86.42
56568;BME280;42456;49.956;20.004;2023-06-14T00:39:26;98226.92;;;9.30;86.28
56568;BME280;42456;49.956;20.004;2023-06-14T00:41:53;98225.98;;;9.33;86.47
56568;BME280;42456;49.956;20.004;2023-06-14T00:44:20;98230.05;;;9.36;86.34
56568;BME280;42456;49.956;20.004;2023-06-14T00:46:48;98226.63;;;9.39;86.51
56568;BME280;42456;49.956;20.004;2023-06-14T00:49:15;98226.27;;;9.41;86.53
56568;BME280;42456;49.956;20.004;2023-06-14T00:51:44;98225.67;;;9.46;86.52
56568;BME280;42456;49.956;20.004;2023-06-14T00:54:12;98220.84;;;9.49;86.67
56568;BME280;42456;49.956;20.004;2023-06-14T00:56:39;98218.86;;;9.52;86.80
56568;BME280;42456;49.956;20.004;2023-06-14T00:59:06;98212.70;;;9.54;86.88
56568;BME280;42456;49.956;20.004;2023-06-14T01:01:33;98214.45;;;9.58;86.95
56568;BME280;42456;49.956;20.004;2023-06-14T01:04:00;98208.98;;;9.62;87.16
56568;BME280;42456;49.956;20.004;2023-06-14T01:06:45;98204.49;;;9.65;87.23
56568;BME280;42456;49.956;20.004;2023-06-14T01:14:41;98202.14;;;9.75;87.84
56568;BME280;42456;49.956;20.004;2023-06-14T01:17:08;98198.70;;;9.78;87.82
56568;BME280;42456;49.956;20.004;2023-06-14T01:19:43;98196.82;;;9.81;87.92
56568;BME280;42456;49.956;20.004;2023-06-14T01:22:11;98194.06;;;9.83;88.27
56568;BME280;42456;49.956;20.004;2023-06-14T01:24:37;98197.63;;;9.85;88.28
56568;BME280;42456;49.956;20.004;2023-06-14T01:27:05;98196.52;;;9.86;88.24
56568;BME280;42456;49.956;20.004;2023-06-14T01:29:33;98197.16;;;9.87;88.11
56568;BME280;42456;49.956;20.004;2023-06-14T01:32:03;98193.30;;;9.90;88.12
56568;BME280;42456;49.956;20.004;2023-06-14T01:34:30;98190.71;;;9.93;88.34
56568;BME280;42456;49.956;20.004;2023-06-14T01:37:01;98189.76;;;9.96;88.47
56568;BME280;42456;49.956;20.004;2023-06-14T01:39:30;98183.03;;;9.99;88.36
56568;BME280;42456;49.956;20.004;2023-06-14T01:41:57;98181.63;;;10.02;88.44
56568;BME280;42456;49.956;20.004;2023-06-14T01:44:26;98182.30;;;10.04;88.42
56568;BME280;42456;49.956;20.004;2023-06-14T01:46:54;98181.95;;;10.06;88.56
56568;BME280;42456;49.956;20.004;2023-06-14T01:49:21;98182.67;;;10.09;88.69
56568;BME280;42456;49.956;20.004;2023-06-14T01:51:48;98183.95;;;10.12;88.92
56568;BME280;42456;49.956;20.004;2023-06-14T01:54:14;98183.06;;;10.15;88.95
56568;BME280;42456;49.956;20.004;2023-06-14T01:56:41;98184.72;;;10.18;89.01
56568;BME280;42456;49.956;20.004;2023-06-14T01:59:08;98188.75;;;10.21;89.07
56568;BME280;42456;49.956;20.004;2023-06-14T02:01:35;98182.77;;;10.24;89.07
56568;BME280;42456;49.956;20.004;2023-06-14T02:04:03;98184.41;;;10.26;89.27
56568;BME280;42456;49.956;20.004;2023-06-14T02:06:30;98185.73;;;10.29;89.48
56568;BME280;42456;49.956;20.004;2023-06-14T02:08:57;98189.83;;;10.32;89.31
56568;BME280;42456;49.956;20.004;2023-06-14T02:11:24;98188.64;;;10.34;89.64
56568;BME280;42456;49.956;20.004;2023-06-14T02:13:52;98186.38;;;10.38;89.56
56568;BME280;42456;49.956;20.004;2023-06-14T02:16:19;98183.95;;;10.41;89.74
56568;BME280;42456;49.956;20.004;2023-06-14T02:18:46;98183.71;;;10.43;89.72
56568;BME280;42456;49.956;20.004;2023-06-14T02:21:14;98183.23;;;10.45;89.89
56568;BME280;42456;49.956;20.004;2023-06-14T02:23:41;98181.04;;;10.45;90.06
56568;BME280;42456;49.956;20.004;2023-06-14T02:26:08;98180.33;;;10.47;89.87
56568;BME280;42456;49.956;20.004;2023-06-14T02:28:35;98182.26;;;10.49;90.14
56568;BME280;42456;49.956;20.004;2023-06-14T02:31:02;98180.48;;;10.51;90.01
56568;BME280;42456;49.956;20.004;2023-06-14T02:33:29;98183.41;;;10.53;90.01
56568;BME280;42456;49.956;20.004;2023-06-14T02:35:56;98180.99;;;10.55;90.04
56568;BME280;42456;49.956;20.004;2023-06-14T02:38:23;98183.55;;;10.55;90.08
56568;BME280;42456;49.956;20.004;2023-06-14T02:40:50;98180.58;;;10.57;90.24
56568;BME280;42456;49.956;20.004;2023-06-14T02:43:17;98177.80;;;10.58;90.18
56568;BME280;42456;49.956;20.004;2023-06-14T02:45:44;98176.68;;;10.59;90.30
56568;BME280;42456;49.956;20.004;2023-06-14T02:48:11;98179.73;;;10.61;90.36
56568;BME280;42456;49.956;20.004;2023-06-14T02:50:38;98178.20;;;10.62;90.38
56568;BME280;42456;49.956;20.004;2023-06-14T02:53:05;98179.77;;;10.65;90.47
56568;BME280;42456;49.956;20.004;2023-06-14T02:55:33;98181.67;;;10.67;90.34
56568;BME280;42456;49.956;20.004;2023-06-14T02:58:00;98184.16;;;10.68;90.45
56568;BME280;42456;49.956;20.004;2023-06-14T03:00:26;98180.94;;;10.71;90.42
56568;BME280;42456;49.956;20.004;2023-06-14T03:02:56;98178.14;;;10.72;90.39
56568;BME280;42456;49.956;20.004;2023-06-14T03:05:23;98179.11;;;10.73;90.51
56568;BME280;42456;49.956;20.004;2023-06-14T03:07:50;98181.02;;;10.75;90.58
56568;BME280;42456;49.956;20.004;2023-06-14T03:10:17;98180.40;;;10.77;90.47
56568;BME280;42456;49.956;20.004;2023-06-14T03:12:44;98182.92;;;10.79;90.32
56568;BME280;42456;49.956;20.004;2023-06-14T03:15:11;98183.66;;;10.80;90.45
56568;BME280;42456;49.956;20.004;2023-06-14T03:17:40;98183.35;;;10.82;90.29
56568;BME280;42456;49.956;20.004;2023-06-14T03:20:07;98187.54;;;10.85;90.39
56568;BME280;42456;49.956;20.004;2023-06-14T03:22:35;98187.73;;;10.87;90.37
56568;BME280;42456;49.956;20.004;2023-06-14T03:25:02;98190.52;;;10.89;90.29
56568;BME280;42456;49.956;20.004;2023-06-14T03:27:31;98190.80;;;10.91;90.33
56568;BME280;42456;49.956;20.004;2023-06-14T03:29:57;98188.22;;;10.92;90.43
56568;BME280;42456;49.956;20.004;2023-06-14T03:32:24;98188.54;;;10.94;90.38
56568;BME280;42456;49.956;20.004;2023-06-14T03:34:51;98181.66;;;10.96;90.45
56568;BME280;42456;49.956;20.004;2023-06-14T03:37:19;98181.78;;;10.97;90.29
56568;BME280;42456;49.956;20.004;2023-06-14T03:39:46;98182.59;;;10.98;90.20
56568;BME280;42456;49.956;20.004;2023-06-14T03:42:14;98183.69;;;10.99;90.27
56568;BME280;42456;49.956;20.004;2023-06-14T03:44:41;98186.36;;;11.00;90.44
56568;BME280;42456;49.956;20.004;2023-06-14T03:47:07;98186.09;;;11.01;90.27
56568;BME280;42456;49.956;20.004;2023-06-14T03:49:35;98186.59;;;11.03;90.36
56568;BME280;42456;49.956;20.004;2023-06-14T03:52:02;98195.39;;;11.03;90.32
56568;BME280;42456;49.956;20.004;2023-06-14T03:54:30;98194.38;;;11.03;90.35
56568;BME280;42456;49.956;20.004;2023-06-14T03:57:19;98192.61;;;11.04;90.50
56568;BME280;42456;49.956;20.004;2023-06-14T03:59:50;98194.11;;;11.04;90.32
56568;BME280;42456;49.956;20.004;2023-06-14T04:02:17;98197.05;;;11.05;90.53
56568;BME280;42456;49.956;20.004;2023-06-14T04:04:45;98197.67;;;11.05;90.49
56568;BME280;42456;49.956;20.004;2023-06-14T04:07:13;98197.50;;;11.04;90.61
56568;BME280;42456;49.956;20.004;2023-06-14T04:09:40;98198.50;;;11.04;90.66
56568;BME280;42456;49.956;20.004;2023-06-14T04:12:08;98195.95;;;11.06;90.68
56568;BME280;42456;49.956;20.004;2023-06-14T04:14:41;98199.23;;;11.08;90.73
56568;BME280;42456;49.956;20.004;2023-06-14T04:17:07;98201.33;;;11.10;90.76
56568;BME280;42456;49.956;20.004;2023-06-14T04:19:34;98199.94;;;11.13;90.70
56568;BME280;42456;49.956;20.004;2023-06-14T04:22:01;98202.66;;;11.16;90.74
56568;BME280;42456;49.956;20.004;2023-06-14T04:24:28;98204.17;;;11.19;90.77
56568;BME280;42456;49.956;20.004;2023-06-14T04:26:59;98205.18;;;11.22;90.70
56568;BME280;42456;49.956;20.004;2023-06-14T04:29:28;98205.16;;;11.24;90.88
56568;BME280;42456;49.956;20.004;2023-06-14T04:31:56;98206.90;;;11.25;90.60
56568;BME280;42456;49.956;20.004;2023-06-14T04:34:26;98212.34;;;11.27;90.72
56568;BME280;42456;49.956;20.004;2023-06-14T04:36:56;98212.10;;;11.29;90.72
56568;BME280;42456;49.956;20.004;2023-06-14T04:39:25;98209.73;;;11.32;90.69
56568;BME280;42456;49.956;20.004;2023-06-14T04:41:53;98212.19;;;11.34;90.69
56568;BME280;42456;49.956;20.004;2023-06-14T04:44:24;98209.86;;;11.33;90.47
56568;BME280;42456;49.956;20.004;2023-06-14T04:46:57;98210.11;;;11.34;90.54
56568;BME280;42456;49.956;20.004;2023-06-14T04:49:25;98209.93;;;11.35;90.41
56568;BME280;42456;49.956;20.004;2023-06-14T04:51:56;98213.60;;;11.37;90.43
56568;BME280;42456;49.956;20.004;2023-06-14T04:54:28;98212.61;;;11.37;90.16
56568;BME280;42456;49.956;20.004;2023-06-14T04:56:58;98211.87;;;11.36;90.14
56568;BME280;42456;49.956;20.004;2023-06-14T04:59:25;98211.35;;;11.34;89.98
56568;BME280;42456;49.956;20.004;2023-06-14T05:01:52;98206.61;;;11.30;89.77
56568;BME280;42456;49.956;20.004;2023-06-14T05:04:20;98209.70;;;11.28;89.94
56568;BME280;42456;49.956;20.004;2023-06-14T05:06:49;98210.52;;;11.27;90.04
56568;BME280;42456;49.956;20.004;2023-06-14T05:09:16;98212.69;;;11.28;90.31
56568;BME280;42456;49.956;20.004;2023-06-14T05:11:43;98213.59;;;11.29;90.47
56568;BME280;42456;49.956;20.004;2023-06-14T05:14:11;98213.10;;;11.31;90.24
56568;BME280;42456;49.956;20.004;2023-06-14T05:16:39;98209.52;;;11.34;90.41
56568;BME280;42456;49.956;20.004;2023-06-14T05:19:06;98210.52;;;11.39;90.52
56568;BME280;42456;49.956;20.004;2023-06-14T05:21:34;98210.38;;;11.47;90.53
56568;BME280;42456;49.956;20.004;2023-06-14T05:24:06;98215.34;;;11.53;90.54
56568;BME280;42456;49.956;20.004;2023-06-14T05:26:35;98214.63;;;11.59;90.35
56568;BME280;42456;49.956;20.004;2023-06-14T05:29:02;98214.15;;;11.67;90.29
56568;BME280;42456;49.956;20.004;2023-06-14T05:31:29;98215.73;;;11.74;90.40
56568;BME280;42456;49.956;20.004;2023-06-14T05:33:56;98215.41;;;11.80;90.48
56568;BME280;42456;49.956;20.004;2023-06-14T05:36:23;98218.32;;;11.84;90.50
56568;BME280;42456;49.956;20.004;2023-06-14T05:38:51;98217.31;;;11.89;90.68
56568;BME280;42456;49.956;20.004;2023-06-14T05:41:27;98218.04;;;11.95;90.35
56568;BME280;42456;49.956;20.004;2023-06-14T05:43:54;98220.19;;;12.02;90.55
56568;BME280;42456;49.956;20.004;2023-06-14T05:46:22;98215.55;;;12.07;90.19
56568;BME280;42456;49.956;20.004;2023-06-14T05:48:52;98217.13;;;12.13;90.27
56568;BME280;42456;49.956;20.004;2023-06-14T05:51:18;98213.84;;;12.22;90.44
56568;BME280;42456;49.956;20.004;2023-06-14T05:53:49;98219.17;;;12.30;90.17
56568;BME280;42456;49.956;20.004;2023-06-14T05:56:17;98220.94;;;12.35;90.03
56568;BME280;42456;49.956;20.004;2023-06-14T05:58:45;98223.72;;;12.35;89.92
56568;BME280;42456;49.956;20.004;2023-06-14T06:01:12;98228.49;;;12.35;89.63
56568;BME280;42456;49.956;20.004;2023-06-14T06:03:40;98226.54;;;12.34;89.65
56568;BME280;42456;49.956;20.004;2023-06-14T06:06:08;98229.66;;;12.33;89.21
56568;BME280;42456;49.956;20.004;2023-06-14T06:08:35;98232.37;;;12.30;89.39
56568;BME280;42456;49.956;20.004;2023-06-14T06:11:01;98231.04;;;12.30;89.57
56568;BME280;42456;49.956;20.004;2023-06-14T06:13:28;98229.85;;;12.29;89.59
56568;BME280;42456;49.956;20.004;2023-06-14T06:15:55;98237.30;;;12.28;89.54
56568;BME280;42456;49.956;20.004;2023-06-14T06:18:23;98235.39;;;12.26;89.37
56568;BME280;42456;49.956;20.004;2023-06-14T06:20:50;98236.42;;;12.22;89.08
56568;BME280;42456;49.956;20.004;2023-06-14T06:23:17;98237.20;;;12.19;89.31
56568;BME280;42456;49.956;20.004;2023-06-14T06:25:43;98238.23;;;12.18;89.41
56568;BME280;42456;49.956;20.004;2023-06-14T06:28:10;98245.64;;;12.16;89.59
56568;BME280;42456;49.956;20.004;2023-06-14T06:30:38;98248.77;;;12.15;89.60
56568;BME280;42456;49.956;20.004;2023-06-14T06:33:05;98252.28;;;12.14;89.57
56568;BME280;42456;49.956;20.004;2023-06-14T06:35:32;98256.05;;;12.14;89.87
56568;BME280;42456;49.956;20.004;2023-06-14T06:38:00;98258.43;;;12.14;89.74
56568;BME280;42456;49.956;20.004;2023-06-14T06:40:27;98263.02;;;12.15;90.04
56568;BME280;42456;49.956;20.004;2023-06-14T06:42:54;98264.08;;;12.17;89.87
56568;BME280;42456;49.956;20.004;2023-06-14T06:45:21;98269.35;;;12.18;90.01
56568;BME280;42456;49.956;20.004;2023-06-14T06:47:51;98271.98;;;12.18;89.83
56568;BME280;42456;49.956;20.004;2023-06-14T06:50:18;98274.56;;;12.17;89.86
56568;BME280;42456;49.956;20.004;2023-06-14T06:52:46;98269.16;;;12.17;89.94
56568;BME280;42456;49.956;20.004;2023-06-14T06:55:13;98271.95;;;12.20;90.19
56568;BME280;42456;49.956;20.004;2023-06-14T06:57:41;98274.91;;;12.24;90.28
56568;BME280;42456;49.956;20.004;2023-06-14T07:00:09;98271.26;;;12.25;90.25
56568;BME280;42456;49.956;20.004;2023-06-14T07:02:36;98277.30;;;12.26;90.42
56568;BME280;42456;49.956;20.004;2023-06-14T07:05:04;98278.48;;;12.27;90.12
56568;BME280;42456;49.956;20.004;2023-06-14T07:07:31;98278.39;;;12.29;90.28
56568;BME280;42456;49.956;20.004;2023-06-14T07:09:58;98279.40;;;12.34;90.53
56568;BME280;42456;49.956;20.004;2023-06-14T07:12:27;98282.17;;;12.39;90.46
56568;BME280;42456;49.956;20.004;2023-06-14T07:14:54;98278.55;;;12.44;90.62
56568;BME280;42456;49.956;20.004;2023-06-14T07:17:20;98284.13;;;12.53;90.38
56568;BME280;42456;49.956;20.004;2023-06-14T07:19:47;98282.70;;;12.61;90.37
56568;BME280;42456;49.956;20.004;2023-06-14T07:22:14;98286.09;;;12.69;90.58
56568;BME280;42456;49.956;20.004;2023-06-14T07:24:41;98291.95;;;12.77;90.29
56568;BME280;42456;49.956;20.004;2023-06-14T07:27:09;98287.61;;;12.82;90.22
56568;BME280;42456;49.956;20.004;2023-06-14T07:29:40;98292.78;;;12.90;89.95
56568;BME280;42456;49.956;20.004;2023-06-14T07:32:07;98294.25;;;13.01;89.84
56568;BME280;42456;49.956;20.004;2023-06-14T07:34:34;98285.71;;;13.12;89.71
56568;BME280;42456;49.956;20.004;2023-06-14T07:37:02;98294.88;;;13.26;89.64
56568;BME280;42456;49.956;20.004;2023-06-14T07:39:29;98293.95;;;13.35;89.68
56568;BME280;42456;49.956;20.004;2023-06-14T07:41:56;98295.91;;;13.39;89.49
56568;BME280;42456;49.956;20.004;2023-06-14T07:44:23;98295.71;;;13.37;89.19
56568;BME280;42456;49.956;20.004;2023-06-14T07:46:50;98295.19;;;13.37;88.99
56568;BME280;42456;49.956;20.004;2023-06-14T07:49:18;98299.00;;;13.36;88.88
56568;BME280;42456;49.956;20.004;2023-06-14T07:51:45;98301.92;;;13.35;88.81
56568;BME280;42456;49.956;20.004;2023-06-14T07:54:13;98303.19;;;13.34;88.42
56568;BME280;42456;49.956;20.004;2023-06-14T07:56:40;98303.80;;;13.34;88.63
56568;BME280;42456;49.956;20.004;2023-06-14T07:59:10;98301.25;;;13.34;88.65
56568;BME280;42456;49.956;20.004;2023-06-14T08:01:37;98304.93;;;13.35;88.79
56568;BME280;42456;49.956;20.004;2023-06-14T08:04:04;98305.25;;;13.39;88.88
56568;BME280;42456;49.956;20.004;2023-06-14T08:06:32;98304.68;;;13.40;88.70
56568;BME280;42456;49.956;20.004;2023-06-14T08:09:00;98303.55;;;13.45;88.71
56568;BME280;42456;49.956;20.004;2023-06-14T08:11:27;98299.80;;;13.52;88.75
56568;BME280;42456;49.956;20.004;2023-06-14T08:13:54;98302.86;;;13.59;88.83
56568;BME280;42456;49.956;20.004;2023-06-14T08:16:21;98301.79;;;13.66;88.92
56568;BME280;42456;49.956;20.004;2023-06-14T08:18:49;98304.34;;;13.68;88.70
56568;BME280;42456;49.956;20.004;2023-06-14T08:21:16;98301.77;;;13.70;88.60
56568;BME280;42456;49.956;20.004;2023-06-14T08:23:44;98301.90;;;13.73;88.39
56568;BME280;42456;49.956;20.004;2023-06-14T08:26:11;98301.27;;;13.75;88.17
56568;BME280;42456;49.956;20.004;2023-06-14T08:28:38;98299.86;;;13.81;88.14
56568;BME280;42456;49.956;20.004;2023-06-14T08:31:05;98303.31;;;13.89;88.01
56568;BME280;42456;49.956;20.004;2023-06-14T08:33:32;98307.42;;;13.96;88.11
56568;BME280;42456;49.956;20.004;2023-06-14T08:36:00;98307.86;;;14.04;88.23
56568;BME280;42456;49.956;20.004;2023-06-14T08:38:27;98309.91;;;14.13;87.90
56568;BME280;42456;49.956;20.004;2023-06-14T08:40:57;98309.14;;;14.19;87.70
56568;BME280;42456;49.956;20.004;2023-06-14T08:43:24;98308.77;;;14.22;87.38
56568;BME280;42456;49.956;20.004;2023-06-14T08:45:57;98311.50;;;14.21;87.14
56568;BME280;42456;49.956;20.004;2023-06-14T08:48:26;98312.48;;;14.20;87.27
56568;BME280;42456;49.956;20.004;2023-06-14T08:50:59;98315.59;;;14.17;87.32
56568;BME280;42456;49.956;20.004;2023-06-14T08:53:30;98319.21;;;14.14;87.25
56568;BME280;42456;49.956;20.004;2023-06-14T08:56:02;98321.61;;;14.11;87.08
56568;BME280;42456;49.956;20.004;2023-06-14T08:58:31;98318.96;;;14.07;86.95
56568;BME280;42456;49.956;20.004;2023-06-14T09:01:02;98325.38;;;14.04;87.03
56568;BME280;42456;49.956;20.004;2023-06-14T09:03:29;98324.69;;;14.00;87.06
56568;BME280;42456;49.956;20.004;2023-06-14T09:05:58;98329.46;;;14.00;87.16
56568;BME280;42456;49.956;20.004;2023-06-14T09:08:28;98332.58;;;14.01;87.20
56568;BME280;42456;49.956;20.004;2023-06-14T09:10:57;98333.09;;;14.03;87.36
56568;BME280;42456;49.956;20.004;2023-06-14T09:13:26;98335.19;;;14.03;87.25
56568;BME280;42456;49.956;20.004;2023-06-14T09:15:57;98335.41;;;14.03;87.08
56568;BME280;42456;49.956;20.004;2023-06-14T09:18:45;98335.42;;;14.03;87.21
56568;BME280;42456;49.956;20.004;2023-06-14T09:21:16;98337.44;;;14.01;87.03
56568;BME280;42456;49.956;20.004;2023-06-14T09:23:47;98338.27;;;14.00;87.23
56568;BME280;42456;49.956;20.004;2023-06-14T09:26:19;98335.55;;;14.02;87.26
56568;BME280;42456;49.956;20.004;2023-06-14T09:28:50;98334.01;;;14.02;87.32
56568;BME280;42456;49.956;20.004;2023-06-14T09:31:18;98335.11;;;14.04;87.45
56568;BME280;42456;49.956;20.004;2023-06-14T09:33:50;98332.86;;;14.06;87.67
56568;BME280;42456;49.956;20.004;2023-06-14T09:36:25;98336.34;;;14.09;87.67
56568;BME280;42456;49.956;20.004;2023-06-14T09:38:53;98338.64;;;14.12;87.74
56568;BME280;42456;49.956;20.004;2023-06-14T09:41:41;98341.27;;;14.15;87.32
56568;BME280;42456;49.956;20.004;2023-06-14T09:44:11;98335.75;;;14.20;87.92
56568;BME280;42456;49.956;20.004;2023-06-14T09:46:46;98334.70;;;14.24;88.02
56568;BME280;42456;49.956;20.004;2023-06-14T09:49:14;98334.24;;;14.30;87.87
56568;BME280;42456;49.956;20.004;2023-06-14T09:51:45;98333.42;;;14.37;87.95
56568;BME280;42456;49.956;20.004;2023-06-14T09:54:16;98331.32;;;14.44;88.04
56568;BME280;42456;49.956;20.004;2023-06-14T09:56:47;98333.17;;;14.54;87.91
56568;BME280;42456;49.956;20.004;2023-06-14T09:59:19;98330.88;;;14.65;87.69
56568;BME280;42456;49.956;20.004;2023-06-14T10:01:48;98327.30;;;14.81;87.45
56568;BME280;42456;49.956;20.004;2023-06-14T10:04:19;98325.16;;;14.98;87.34
56568;BME280;42456;49.956;20.004;2023-06-14T10:06:50;98329.02;;;15.12;87.02
56568;BME280;42456;49.956;20.004;2023-06-14T10:09:18;98329.09;;;15.27;87.15
56568;BME280;42456;49.956;20.004;2023-06-14T10:11:45;98329.55;;;15.42;87.09
56568;BME280;42456;49.956;20.004;2023-06-14T10:14:13;98335.23;;;15.52;85.86
56568;BME280;42456;49.956;20.004;2023-06-14T10:17:00;98334.15;;;15.55;85.06
56568;BME280;42456;49.956;20.004;2023-06-14T10:19:37;98337.39;;;15.59;85.00
56568;BME280;42456;49.956;20.004;2023-06-14T10:22:23;98336.90;;;15.62;84.75
56568;BME280;42456;49.956;20.004;2023-06-14T10:24:53;98338.78;;;15.59;83.84
56568;BME280;42456;49.956;20.004;2023-06-14T10:27:20;98334.89;;;15.54;83.58
56568;BME280;42456;49.956;20.004;2023-06-14T10:32:21;98332.73;;;15.50;83.40
56568;BME280;42456;49.956;20.004;2023-06-14T10:35:08;98336.14;;;15.50;83.74
56568;BME280;42456;49.956;20.004;2023-06-14T10:37:35;98337.08;;;15.46;83.74
56568;BME280;42456;49.956;20.004;2023-06-14T10:40:03;98339.50;;;15.40;83.71
56568;BME280;42456;49.956;20.004;2023-06-14T10:42:32;98343.14;;;15.33;83.77
56568;BME280;42456;49.956;20.004;2023-06-14T10:45:01;98342.73;;;15.31;83.97
56568;BME280;42456;49.956;20.004;2023-06-14T10:50:02;98342.94;;;15.37;84.12
56568;BME280;42456;49.956;20.004;2023-06-14T10:52:33;98338.75;;;15.45;84.00
56568;BME280;42456;49.956;20.004;2023-06-14T10:55:13;98339.81;;;15.56;83.65
56568;BME280;42456;49.956;20.004;2023-06-14T10:57:53;98336.19;;;15.74;83.54
56568;BME280;42456;49.956;20.004;2023-06-14T11:00:28;98335.79;;;15.95;83.74
56568;BME280;42456;49.956;20.004;2023-06-14T11:05:54;98333.02;;;16.38;82.71
56568;BME280;42456;49.956;20.004;2023-06-14T11:11:06;98331.66;;;16.87;81.06
56568;BME280;42456;49.956;20.004;2023-06-14T11:13:37;98327.49;;;17.08;80.26
56568;BME280;42456;49.956;20.004;2023-06-14T11:16:11;98326.86;;;17.26;79.37
56568;BME280;42456;49.956;20.004;2023-06-14T11:18:39;98325.14;;;17.43;79.46
56568;BME280;42456;49.956;20.004;2023-06-14T11:21:06;98322.42;;;17.56;78.65
56568;BME280;42456;49.956;20.004;2023-06-14T11:23:33;98320.20;;;17.75;78.14
56568;BME280;42456;49.956;20.004;2023-06-14T11:26:00;98318.73;;;17.92;77.22
56568;BME280;42456;49.956;20.004;2023-06-14T11:28:41;98314.73;;;18.07;76.80
56568;BME280;42456;49.956;20.004;2023-06-14T11:31:08;98311.94;;;18.27;75.19
56568;BME280;42456;49.956;20.004;2023-06-14T11:33:36;98311.55;;;18.45;75.25
56568;BME280;42456;49.956;20.004;2023-06-14T11:36:05;98309.29;;;18.67;75.11
56568;BME280;42456;49.956;20.004;2023-06-14T11:38:36;98312.11;;;18.85;73.00
56568;BME280;42456;49.956;20.004;2023-06-14T11:41:04;98312.20;;;18.89;71.45
56568;BME280;42456;49.956;20.004;2023-06-14T11:43:31;98305.55;;;18.97;70.64
56568;BME280;42456;49.956;20.004;2023-06-14T11:46:01;98300.95;;;18.99;69.90
56568;BME280;42456;49.956;20.004;2023-06-14T11:48:38;98293.98;;;19.05;69.70
56568;BME280;42456;49.956;20.004;2023-06-14T11:51:06;98291.27;;;19.07;69.21
56568;BME280;42456;49.956;20.004;2023-06-14T11:53:34;98291.32;;;19.01;69.02
56568;BME280;42456;49.956;20.004;2023-06-14T11:56:01;98293.86;;;18.98;69.02
56568;BME280;42456;49.956;20.004;2023-06-14T11:58:29;98284.77;;;18.99;69.56
56568;BME280;42456;49.956;20.004;2023-06-14T12:00:57;98286.26;;;19.02;69.96
56568;BME280;42456;49.956;20.004;2023-06-14T12:03:26;98283.71;;;19.11;70.74
56568;BME280;42456;49.956;20.004;2023-06-14T12:06:05;98288.30;;;19.24;69.72
56568;BME280;42456;49.956;20.004;2023-06-14T12:08:37;98288.95;;;19.29;69.21
56568;BME280;42456;49.956;20.004;2023-06-14T12:11:11;98285.98;;;19.29;68.60
56568;BME280;42456;49.956;20.004;2023-06-14T12:13:41;98289.36;;;19.20;68.25
56568;BME280;42456;49.956;20.004;2023-06-14T12:16:09;98287.30;;;19.12;68.31
56568;BME280;42456;49.956;20.004;2023-06-14T12:18:39;98283.55;;;19.10;68.18
56568;BME280;42456;49.956;20.004;2023-06-14T12:21:07;98283.59;;;19.14;68.89
56568;BME280;42456;49.956;20.004;2023-06-14T12:23:45;98285.31;;;19.19;68.90
56568;BME280;42456;49.956;20.004;2023-06-14T12:26:17;98278.05;;;19.29;68.53
56568;BME280;42456;49.956;20.004;2023-06-14T12:28:45;98277.47;;;19.48;68.38
56568;BME280;42456;49.956;20.004;2023-06-14T12:31:14;98275.31;;;19.55;67.82
56568;BME280;42456;49.956;20.004;2023-06-14T12:33:42;98270.08;;;19.50;67.58
56568;BME280;42456;49.956;20.004;2023-06-14T12:36:10;98266.48;;;19.44;67.63
56568;BME280;42456;49.956;20.004;2023-06-14T12:38:37;98264.09;;;19.27;66.73
56568;BME280;42456;49.956;20.004;2023-06-14T12:41:04;98265.11;;;19.14;67.36
56568;BME280;42456;49.956;20.004;2023-06-14T12:43:33;98263.93;;;19.09;67.94
56568;BME280;42456;49.956;20.004;2023-06-14T12:46:00;98261.45;;;19.12;68.30
56568;BME280;42456;49.956;20.004;2023-06-14T12:48:27;98263.80;;;19.17;67.79
56568;BME280;42456;49.956;20.004;2023-06-14T12:50:57;98262.20;;;19.09;67.78
56568;BME280;42456;49.956;20.004;2023-06-14T12:53:24;98267.20;;;18.89;67.20
56568;BME280;42456;49.956;20.004;2023-06-14T12:55:51;98267.10;;;18.67;66.75
56568;BME280;42456;49.956;20.004;2023-06-14T12:58:19;98273.36;;;18.49;66.47
56568;BME280;42456;49.956;20.004;2023-06-14T13:00:47;98269.44;;;18.32;67.15
56568;BME280;42456;49.956;20.004;2023-06-14T13:03:14;98263.41;;;18.28;67.11
56568;BME280;42456;49.956;20.004;2023-06-14T13:05:42;98266.09;;;18.34;67.79
56568;BME280;42456;49.956;20.004;2023-06-14T13:08:09;98268.09;;;18.37;67.80
56568;BME280;42456;49.956;20.004;2023-06-14T13:10:37;98266.88;;;18.43;67.27
56568;BME280;42456;49.956;20.004;2023-06-14T13:13:04;98268.45;;;18.47;67.59
56568;BME280;42456;49.956;20.004;2023-06-14T13:15:31;98268.80;;;18.52;66.83